ADDS METAR Data INFO
IDs: Format: Raw Decoded Include TAF

Data at: 0307 UTC 17 Jan 2018

KPTV 170256Z AUTO 00000KT 3/4SM BR OVC003 10/10 A3023 RMK AO2 SLP254 T01000100 53004
KPTV 170231Z AUTO 00000KT 1 1/4SM BR OVC003 11/10 A3023 RMK AO2
KPTV 170209Z AUTO 31005KT 3/4SM BR OVC003 11/10 A3023 RMK AO2
KPTV 170156Z AUTO 28005KT 1 1/2SM BR OVC003 11/10 A3023 RMK AO2 SLP252 T01060100
KPTV 170135Z AUTO 28005KT 2SM BR FEW003 11/10 A3021 RMK AO2
KPTV 170056Z AUTO 00000KT 1 1/2SM BR CLR 12/10 A3021 RMK AO2 SLP247 T01170100
KPTV 162356Z AUTO 27005KT 1 3/4SM BR CLR 12/11 A3022 RMK AO2 SLP249 60000 T01220106 10122 20094 58002
KPTV 162327Z AUTO 25004KT 1 3/4SM BR CLR 12/11 A3021 RMK AO2
KPTV 162256Z AUTO 29004KT 2SM BR FEW004 12/11 A3022 RMK AO2 SLP250 T01220111 TSNO
KPTV 162244Z AUTO 27003KT 2SM BR SCT004 12/11 A3022 RMK AO2
KPTV 162156Z AUTO 26003KT 1 1/4SM BR OVC004 11/10 A3023 RMK AO2 SLP252 T01110100
KPTV 162121Z AUTO 28005KT 1 1/2SM BR BKN004 11/11 A3023 RMK AO2
KPTV 162056Z AUTO VRB03KT 2SM BR FEW004 12/11 A3023 RMK AO2 SLP252 60000 T01170106 58016
KPTV 162026Z AUTO 00000KT 2SM BR OVC004 11/11 A3023 RMK AO2
KPTV 162009Z AUTO 09003KT 1 1/2SM BR OVC002 10/10 A3023 RMK AO2 PRESFR
KPTV 161956Z AUTO 00000KT 1SM BR OVC002 10/09 A3025 RMK AO2 SLP260 T01000094
KPTV 161942Z AUTO 14004KT 3/4SM BR OVC002 10/10 A3026 RMK AO2
KPTV 161920Z AUTO 08004KT 1/2SM FG OVC002 09/09 A3027 RMK AO2
KPTV 161856Z AUTO 00000KT 1/4SM FG OVC002 09/09 A3028 RMK AO2 RAE19 SLP271 P0000 T00940094
KPTV 161756Z AUTO 27007KT M1/4SM -RA FG OVC002 09/09 A3027 RMK AO2 RAB27 SLP268 P0000 60000 T00940089 10100 20083 53012
KPTV 161708Z AUTO 23005KT 1/4SM FG BKN002 09/09 A3022 RMK AO2
KPTV 161656Z AUTO 23005KT 1/2SM FG VV002 09/09 A3022 RMK AO2 SLP247 T00940094
KPTV 161654Z AUTO 23005KT 3/4SM BR VV002 09/09 A3022 RMK AO2
KPTV 161635Z AUTO 00000KT 1 3/4SM BR FEW001 09/09 A3021 RMK AO2
KPTV 161623Z AUTO 12003KT 1SM BR VV001 09/09 A3020 RMK AO2 TSNO
KPTV 161617Z AUTO 11003KT 3/4SM BR BKN002 09/09 A3020 RMK AO2
KPTV 161556Z AUTO 12005KT M1/4SM FG OVC002 09/09 A3021 RMK AO2 SLP247 T00940089
KPTV 161456Z AUTO 00000KT 1/4SM FG OVC002 09/08 A3024 RMK AO2 SLP255 T00890083 53017
KPTV 161356Z AUTO 09005KT 1/4SM FG OVC002 08/08 A3021 RMK AO2 SLP245 T00830083
KPTV 161256Z AUTO 29005KT 1/4SM FG OVC002 08/08 A3020 RMK AO2 SLP242 T00830083
KPTV 161156Z AUTO 29004KT M1/4SM FG OVC002 09/08 A3019 RMK AO2 SLP236 T00890083 10100 20067 50008
KPTV 161056Z AUTO 14004KT 1/4SM FG OVC002 08/08 A3019 RMK AO2 SLP238 T00830083
KPTV 160956Z AUTO 15003KT 1/4SM FG OVC002 08/07 A3018 RMK AO2 SLP234 T00780072
KPTV 160856Z AUTO 24004KT 1/4SM FG BKN002 07/07 A3016 RMK AO2 SLP228 T00720072 51006
KPTV 160853Z AUTO 23004KT 1/2SM FG VV002 07/07 A3016 RMK AO2
KPTV 160841Z AUTO 25007KT 3/4SM BR VV001 07/07 A3016 RMK AO2
KPTV 160812Z AUTO 12004KT 1 1/4SM BR CLR 09/08 A3015 RMK AO2
KPTV 160756Z AUTO 00000KT 3/4SM BR CLR 08/08 A3015 RMK AO2 SLP225 T00830078
KPTV 160736Z AUTO 00000KT 1/2SM FG CLR 08/08 A3015 RMK AO2
KPTV 160724Z AUTO 00000KT 1SM BR CLR 08/08 A3015 RMK AO2
KPTV 160705Z AUTO 00000KT 2SM BR CLR 09/09 A3015 RMK AO2
KPTV 160703Z AUTO 00000KT 1SM BR CLR 09/09 A3015 RMK AO2
KPTV 160656Z AUTO 10004KT 1/2SM FG CLR 09/09 A3014 RMK AO2 SLP223 T00940089 401890039 TSNO
KPTV 160556Z AUTO 07004KT 1 1/4SM BR FEW002 09/09 A3016 RMK AO2 SLP230 T00890089 10178 20083 51022
KPTV 160552Z AUTO 07004KT 3/4SM BR VV002 09/09 A3016 RMK AO2
KPTV 160541Z AUTO 08006KT 1/4SM FG VV002 09/09 A3016 RMK AO2
KPTV 160534Z AUTO 00000KT 3/4SM BR VV002 09/09 A3016 RMK AO2
KPTV 160528Z AUTO 02004KT 1 1/4SM BR SCT002 10/09 A3016 RMK AO2
KPTV 160526Z AUTO 02004KT 3/4SM BR VV002 10/09 A3016 RMK AO2
KPTV 160456Z AUTO 29004KT M1/4SM FG BKN002 08/08 A3016 RMK AO2 SLP228 T00830083 TSNO
KPTV 160440Z AUTO 32004KT 1/4SM FG VV002 09/08 A3014 RMK AO2 PRESRR
KPTV 160427Z AUTO 00000KT 2SM BR CLR 10/09 A3013 RMK AO2
KPTV 160415Z AUTO 00000KT 1 3/4SM BR CLR 11/10 A3012 RMK AO2
KPTV 160356Z AUTO 00000KT 2SM BR CLR 11/09 A3011 RMK AO2 PRESRR SLP212 T01060094
KPTV 160256Z AUTO 19003KT 2SM BR CLR 12/11 A3010 RMK AO2 SLP206 T01170111 55002
KPTV 160212Z AUTO 26006KT 2 1/2SM BR CLR 12/11 A3009 RMK AO2
KPTV 160156Z AUTO 25006KT 3SM BR CLR 12/11 A3008 RMK AO2 SLP201 T01220111
KPTV 160056Z AUTO 01003KT 5SM HZ CLR 16/11 A3009 RMK AO2 SLP204 T01610106
KPTV 152356Z AUTO 31006KT 5SM HZ CLR 18/11 A3010 RMK AO2 SLP209 T01780106 10189 20089 55006
KPTV 152256Z AUTO 31006KT 7SM CLR 18/09 A3010 RMK AO2 SLP207 T01830094
KPTV 152156Z AUTO 03003KT 7SM CLR 18/09 A3010 RMK AO2 SLP205 T01830089
KPTV 152056Z AUTO VRB03KT 6SM HZ CLR 17/09 A3012 RMK AO2 SLP214 T01720089 58013
KPTV 151956Z AUTO 07003KT 4SM HZ CLR 14/09 A3015 RMK AO2 SLP225 T01440094
KPTV 151856Z AUTO 25003KT 3SM BR FEW002 11/09 A3016 RMK AO2 SLP229 T01110089
KPTV 151846Z AUTO 00000KT 3SM BR SCT002 11/09 A3016 RMK AO2
KPTV 151833Z AUTO 00000KT 2SM BR BKN002 11/09 A3016 RMK AO2
KPTV 151825Z AUTO 00000KT 1SM BR OVC002 09/09 A3016 RMK AO2
KPTV 151813Z AUTO 26007KT 1/2SM FG BKN002 09/08 A3016 RMK AO2
KPTV 151801Z AUTO 27010KT 3/4SM BR VV002 09/08 A3016 RMK AO2
KPTV 151756Z AUTO 28011KT 1 1/4SM BR FEW002 10/08 A3016 RMK AO2 SLP227 T01000083 10122 20039 55001
KPTV 151754Z AUTO 28012KT 1 3/4SM BR FEW002 11/08 A3016 RMK AO2
KPTV 151656Z AUTO 12003KT 4SM BR CLR 11/09 A3014 RMK AO2 SLP223 T01060089
KPTV 151556Z AUTO 00000KT 3SM BR CLR 06/05 A3016 RMK AO2 SLP229 T00560050
KPTV 151512Z AUTO 09003KT 2SM BR CLR 05/05 A3015 RMK AO2